Time;durP1;ratioP1;P1;durP2;ratioP2;P2;SDS_P1;SDS_P2;PMS_P1;PMS_P2;Temp;Humidity;BMP_temperature;BMP_pressure;BME280_temperature;BME280_humidity;BME280_pressure;Samples;Min_cycle;Max_cycle;Signal;HPM_P1;HPM_P2
2022/03/04 00:00:39;;;;;;;19.57;17.50;;;-0.70;99.90;;;0.31;65.35;97990.44;5200832;28;20688;-58
2022/03/04 00:03:13;;;;;;;20.27;17.80;;;-0.60;99.90;;;0.14;64.85;97990.41;5202757;28;20208;-56
2022/03/04 00:05:47;;;;;;;20.97;17.73;;;-0.70;99.90;;;-0.02;66.27;97993.03;5200781;28;20201;-58
2022/03/04 00:08:20;;;;;;;18.97;17.00;;;-0.80;99.90;;;-0.13;66.80;97986.94;5202238;28;20909;-58
2022/03/04 00:10:53;;;;;;;21.77;17.83;;;-1.00;99.90;;;-0.18;66.47;97985.59;5200062;28;20689;-58
2022/03/04 00:13:26;;;;;;;23.20;19.07;;;-1.00;99.90;;;-0.17;65.65;97983.97;5202023;28;20206;-57
2022/03/04 00:16:00;;;;;;;22.83;18.33;;;-0.90;99.90;;;-0.15;66.45;97988.41;5200784;28;20198;-58
2022/03/04 00:18:33;;;;;;;20.93;18.60;;;-0.90;99.90;;;-0.11;65.85;97989.63;5201381;28;20221;-58
2022/03/04 00:21:09;;;;;;;22.50;19.67;;;-0.80;99.90;;;-0.14;66.82;97990.22;5201205;28;20198;-59
2022/03/04 00:23:42;;;;;;;20.10;17.90;;;-0.80;99.90;;;-0.11;67.29;98003.06;5200300;28;20198;-58
2022/03/04 00:26:15;;;;;;;20.00;17.10;;;-0.80;99.90;;;-0.12;67.30;97998.75;5203133;28;20198;-58
2022/03/04 00:28:48;;;;;;;19.07;17.07;;;-0.90;99.90;;;-0.17;67.61;98004.06;5205526;28;20222;-57
2022/03/04 00:31:21;;;;;;;18.40;16.43;;;-1.00;99.90;;;-0.26;68.71;98004.03;5206739;28;20805;-59
2022/03/04 00:33:55;;;;;;;20.80;17.10;;;-1.10;99.90;;;-0.26;69.52;98006.53;5205709;28;20244;-59
2022/03/04 00:36:29;;;;;;;18.63;16.60;;;-1.10;99.90;;;-0.22;69.44;98011.16;5206471;28;20670;-58
2022/03/04 00:39:09;;;;;;;20.57;17.33;;;-1.00;99.90;;;-0.10;69.20;98029.06;5203999;28;20722;-57
2022/03/04 00:41:43;;;;;;;19.07;17.07;;;-1.00;99.90;;;-0.09;68.13;98019.16;5205631;28;20208;-58
2022/03/04 00:44:16;;;;;;;19.73;16.80;;;-1.00;99.90;;;-0.14;68.62;98024.44;5205129;28;20208;-58
2022/03/04 00:46:49;;;;;;;21.47;18.23;;;-1.00;99.90;;;-0.30;70.56;98025.44;5204834;28;20206;-57
2022/03/04 00:49:22;;;;;;;20.10;17.93;;;-1.00;99.90;;;-0.39;70.24;98027.03;5204164;28;20391;-58
2022/03/04 00:51:57;;;;;;;19.63;17.63;;;-1.10;99.90;;;-0.46;70.64;98029.63;5204831;28;20301;-58
2022/03/04 00:54:30;;;;;;;19.57;17.33;;;-1.20;99.90;;;-0.46;69.76;98025.53;5205596;28;20236;-58
2022/03/04 00:57:04;;;;;;;18.83;16.90;;;-1.20;99.90;;;-0.47;68.35;98036.28;5205005;28;20229;-57
2022/03/04 00:59:37;;;;;;;20.17;17.60;;;-1.20;99.90;;;-0.56;69.54;98026.94;5205378;28;20202;-58
2022/03/04 01:02:10;;;;;;;19.53;17.50;;;-1.30;99.90;;;-0.53;69.64;98037.28;5205410;28;20208;-58
2022/03/04 01:04:43;;;;;;;20.73;18.47;;;-1.30;99.90;;;-0.48;69.91;98031.13;5204670;28;20213;-59
2022/03/04 01:07:18;;;;;;;21.70;17.60;;;-1.30;99.90;;;-0.53;69.88;98033.16;5205502;28;20684;-59
2022/03/04 01:09:51;;;;;;;21.07;18.30;;;-1.30;99.90;;;-0.49;69.65;98030.22;5204765;28;20288;-59
2022/03/04 01:12:24;;;;;;;20.57;17.73;;;-1.30;99.90;;;-0.51;70.09;98021.66;5199127;28;20225;-59
2022/03/04 01:14:57;;;;;;;19.73;17.13;;;-1.40;99.90;;;-0.62;70.00;98027.19;5205345;28;20206;-57
2022/03/04 01:17:30;;;;;;;19.70;17.53;;;-1.40;99.90;;;-0.66;70.53;98017.56;5206666;28;20226;-57
2022/03/04 01:20:04;;;;;;;21.37;18.50;;;-1.40;99.90;;;-0.74;69.66;98021.81;5204320;28;20206;-56
2022/03/04 01:22:38;;;;;;;22.23;19.23;;;-1.50;99.90;;;-0.79;69.68;98017.06;5204586;28;20653;-59
2022/03/04 01:25:11;;;;;;;22.73;18.67;;;-1.60;99.90;;;-0.77;70.44;98021.50;5205403;28;20197;-58
2022/03/04 01:27:44;;;;;;;21.37;18.57;;;-1.50;99.90;;;-0.77;69.56;98025.63;5205037;28;20600;-57
2022/03/04 01:30:18;;;;;;;24.17;20.10;;;-1.50;99.90;;;-0.74;69.58;98015.91;5205333;28;20201;-58
2022/03/04 01:32:52;;;;;;;26.70;18.97;;;-1.50;99.90;;;-0.75;69.82;98020.00;5204939;28;20217;-58
2022/03/04 01:35:25;;;;;;;24.53;19.60;;;-1.50;99.90;;;-0.74;69.26;98009.28;5199068;28;20545;-57
2022/03/04 01:37:59;;;;;;;24.30;20.13;;;-1.40;99.90;;;-0.71;69.24;98024.63;5203095;28;20225;-58
2022/03/04 01:40:32;;;;;;;26.07;20.80;;;-1.40;99.90;;;-0.69;69.09;98019.75;5205167;28;20288;-58
2022/03/04 01:43:05;;;;;;;25.63;21.23;;;-1.40;99.90;;;-0.63;68.98;98014.47;5203553;28;20208;-58
2022/03/04 01:45:39;;;;;;;22.63;19.43;;;-1.30;99.90;;;-0.61;70.12;98013.91;5205441;28;20202;-58
2022/03/04 01:48:12;;;;;;;21.63;18.77;;;-1.30;99.90;;;-0.72;71.50;98007.78;5205305;28;20252;-54
2022/03/04 01:50:48;;;;;;;25.77;20.37;;;-1.40;99.90;;;-0.68;69.37;98006.50;5203800;28;20465;-57
2022/03/04 01:53:23;;;;;;;26.03;19.73;;;-1.40;99.90;;;-0.71;69.39;98007.06;5205205;28;20200;-56
2022/03/04 01:55:56;;;;;;;23.77;19.63;;;-1.40;99.90;;;-0.72;69.56;97999.38;5201736;28;20194;-57
2022/03/04 01:58:29;;;;;;;22.67;18.87;;;-1.40;99.90;;;-0.74;69.75;98008.38;5204008;28;20569;-58
2022/03/04 02:01:03;;;;;;;26.70;21.17;;;-1.40;99.90;;;-0.65;68.79;98003.41;5202633;28;20797;-57
2022/03/04 02:03:36;;;;;;;22.40;19.00;;;-1.40;99.90;;;-0.78;68.13;97997.13;5203938;28;20208;-59
2022/03/04 02:06:09;;;;;;;23.93;20.37;;;-1.50;99.90;;;-0.75;69.65;98001.56;5201601;28;20205;-58
2022/03/04 02:08:44;;;;;;;23.27;18.77;;;-1.50;99.90;;;-0.75;70.53;97994.91;5202215;28;20232;-57
2022/03/04 02:11:17;;;;;;;28.23;21.23;;;-1.40;99.90;;;-0.79;70.26;97992.84;5202842;28;20209;-58
2022/03/04 02:13:50;;;;;;;24.00;20.13;;;-1.50;99.90;;;-0.78;69.46;97998.75;5201831;28;20194;-59
2022/03/04 02:16:28;;;;;;;23.90;20.13;;;-1.50;99.90;;;-0.77;70.21;97995.53;5203839;28;20214;-58
2022/03/04 02:19:01;;;;;;;22.73;18.87;;;-1.50;99.90;;;-0.73;71.00;97990.06;5201719;28;20812;-59
2022/03/04 02:21:35;;;;;;;22.47;19.33;;;-1.50;99.90;;;-0.78;70.98;97984.56;5203875;28;20201;-58
2022/03/04 02:24:09;;;;;;;23.60;19.30;;;-1.50;99.90;;;-0.79;69.83;97992.84;5198021;28;20217;-59
2022/03/04 02:26:42;;;;;;;26.40;20.10;;;-1.50;99.90;;;-0.78;70.00;97988.72;5204613;28;20193;-58
2022/03/04 02:29:16;;;;;;;23.80;19.97;;;-1.50;99.90;;;-0.93;70.47;97990.53;5202585;28;20221;-58
2022/03/04 02:31:50;;;;;;;22.47;18.47;;;-1.70;99.90;;;-0.95;69.70;97989.50;5202740;28;20222;-59
2022/03/04 02:34:24;;;;;;;24.80;20.13;;;-1.70;99.90;;;-0.95;70.08;97992.88;5198195;28;20200;-58
2022/03/04 02:36:57;;;;;;;22.37;18.57;;;-1.70;99.90;;;-1.01;70.14;97984.72;5199628;28;20198;-58
2022/03/04 02:39:32;;;;;;;23.60;18.97;;;-1.70;99.90;;;-0.98;70.40;97985.03;5200077;28;20222;-57
2022/03/04 02:42:05;;;;;;;25.53;19.67;;;-1.70;99.90;;;-0.94;70.45;97987.16;5202746;28;20280;-56
2022/03/04 02:44:38;;;;;;;22.93;18.73;;;-1.70;99.90;;;-0.94;70.76;97981.25;5200329;28;20680;-59
2022/03/04 02:47:11;;;;;;;24.33;18.57;;;-1.60;99.90;;;-0.96;71.80;97981.09;5201388;28;20285;-59
2022/03/04 02:49:44;;;;;;;22.50;19.33;;;-1.70;99.90;;;-0.93;70.62;97981.41;5200612;28;20224;-59
2022/03/04 02:52:18;;;;;;;23.80;19.60;;;-1.80;99.90;;;-0.97;70.85;97973.41;5201083;28;20241;-59
2022/03/04 02:54:52;;;;;;;23.30;18.27;;;-1.80;99.90;;;-0.95;71.77;97975.31;5200155;28;20194;-59
2022/03/04 02:57:25;;;;;;;23.93;18.77;;;-1.80;99.90;;;-0.98;71.38;97980.03;5203549;28;20222;-58
2022/03/04 02:59:58;;;;;;;22.00;18.50;;;-1.80;99.90;;;-0.97;71.48;97979.31;5201255;28;20216;-58
2022/03/04 03:02:31;;;;;;;25.33;21.00;;;-1.90;99.90;;;-1.06;71.81;97979.97;5201462;28;20199;-59
2022/03/04 03:05:05;;;;;;;22.93;20.43;;;-1.90;99.90;;;-1.18;73.11;97982.09;5201230;28;20198;-58
2022/03/04 03:07:38;;;;;;;22.43;18.83;;;-2.00;99.90;;;-1.18;72.38;97980.47;5197589;28;20619;-58
2022/03/04 03:10:14;;;;;;;23.63;19.57;;;-2.00;99.90;;;-1.25;73.04;97982.22;5199231;28;20210;-56
2022/03/04 03:12:47;;;;;;;23.33;18.93;;;-2.10;99.90;;;-1.40;72.83;97986.53;5201973;28;20647;-55
2022/03/04 03:15:20;;;;;;;21.47;18.27;;;-2.20;99.90;;;-1.50;73.29;97979.66;5200599;28;20201;-57
2022/03/04 03:17:53;;;;;;;23.23;19.23;;;-2.30;99.90;;;-1.52;72.73;97981.09;5200475;28;20218;-59
2022/03/04 03:20:26;;;;;;;25.13;20.17;;;-2.30;99.90;;;-1.51;73.35;97977.88;5197536;28;20281;-58
2022/03/04 03:22:59;;;;;;;22.90;20.17;;;-2.30;99.90;;;-1.49;73.01;97976.41;5199544;28;20218;-57
2022/03/04 03:25:34;;;;;;;22.57;19.47;;;-2.20;99.90;;;-1.43;72.91;97978.66;5203435;28;20210;-55
2022/03/04 03:28:07;;;;;;;23.70;20.33;;;-2.20;99.90;;;-1.43;73.38;97977.06;5201931;28;20225;-54
2022/03/04 03:30:40;;;;;;;23.37;19.53;;;-2.20;99.90;;;-1.42;73.07;97978.84;5200620;28;20204;-58
2022/03/04 03:33:13;;;;;;;25.33;19.70;;;-2.20;99.90;;;-1.41;73.22;97980.59;5202067;28;20229;-55
2022/03/04 03:35:47;;;;;;;22.93;19.50;;;-2.20;99.90;;;-1.42;74.13;97980.47;5202313;28;20205;-58
2022/03/04 03:38:20;;;;;;;21.27;18.87;;;-2.20;99.90;;;-1.45;73.52;97982.66;5202419;28;20221;-58
2022/03/04 03:40:54;;;;;;;24.53;18.63;;;-2.30;99.90;;;-1.52;73.35;97991.13;5200424;28;20194;-57
2022/03/04 03:43:44;;;;;;;22.97;18.73;;;-2.40;99.90;;;-1.57;72.57;97989.78;5201244;28;20626;-55
2022/03/04 03:46:17;;;;;;;22.50;19.00;;;-2.40;99.90;;;-1.64;73.65;97989.84;5206038;28;20203;-58
2022/03/04 03:48:50;;;;;;;25.77;20.17;;;-2.40;99.90;;;-1.65;72.90;97993.09;5201616;28;20705;-57
2022/03/04 03:51:23;;;;;;;23.63;18.90;;;-2.40;99.90;;;-1.60;72.75;97996.97;5196175;28;20204;-59
2022/03/04 03:53:56;;;;;;;24.83;19.40;;;-2.30;99.90;;;-1.64;73.60;97992.34;5200084;28;20594;-59
2022/03/04 03:56:31;;;;;;;23.93;19.40;;;-2.40;99.90;;;-1.64;74.24;98000.75;5202308;28;20205;-59
2022/03/04 03:59:04;;;;;;;25.07;19.90;;;-2.30;99.90;;;-1.61;73.33;98010.22;5200075;28;20225;-58
2022/03/04 04:01:38;;;;;;;25.03;20.43;;;-2.30;99.90;;;-1.56;72.88;98011.59;5204606;28;20205;-59
2022/03/04 04:04:12;;;;;;;25.13;20.47;;;-2.20;99.90;;;-1.55;72.52;98008.34;5199714;28;20189;-57
2022/03/04 04:06:45;;;;;;;26.77;21.07;;;-2.20;99.90;;;-1.56;72.40;98009.09;5201482;28;20662;-57
2022/03/04 04:09:18;;;;;;;25.07;21.17;;;-2.30;99.90;;;-1.59;71.98;98007.13;5201591;28;20240;-58
2022/03/04 04:11:53;;;;;;;24.17;20.50;;;-2.30;99.90;;;-1.60;73.60;98004.50;5203609;28;20214;-58
2022/03/04 04:14:27;;;;;;;25.23;20.17;;;-2.30;99.90;;;-1.63;73.44;98014.16;5198682;28;20632;-58
2022/03/04 04:17:00;;;;;;;25.93;20.97;;;-2.30;99.90;;;-1.68;71.93;98018.69;5203531;28;20214;-59
2022/03/04 04:19:33;;;;;;;23.37;19.37;;;-2.40;99.90;;;-1.69;72.95;98021.03;5202967;28;20205;-58
2022/03/04 04:22:06;;;;;;;23.33;20.83;;;-2.40;99.90;;;-1.69;71.95;98021.03;5202910;28;20223;-57
2022/03/04 04:24:39;;;;;;;25.37;20.33;;;-2.40;99.90;;;-1.72;72.74;98018.19;5203284;28;20574;-59
2022/03/04 04:27:14;;;;;;;26.37;19.47;;;-2.40;99.90;;;-1.70;72.49;98027.66;5204303;28;20255;-58
2022/03/04 04:29:47;;;;;;;26.87;20.63;;;-2.40;99.90;;;-1.74;72.31;98029.69;5203443;28;20201;-58
2022/03/04 04:32:20;;;;;;;24.03;19.43;;;-2.40;99.90;;;-1.71;72.67;98027.50;5203274;28;20206;-57
2022/03/04 04:34:53;;;;;;;24.53;19.27;;;-2.40;99.90;;;-1.67;73.92;98027.09;5202167;28;20247;-57
2022/03/04 04:37:26;;;;;;;23.77;20.13;;;-2.30;99.90;;;-1.70;73.03;98024.28;5198257;28;20595;-58
2022/03/04 04:39:59;;;;;;;24.83;19.10;;;-2.40;99.90;;;-1.65;72.88;98019.03;5196863;28;20210;-58
2022/03/04 04:42:33;;;;;;;26.47;19.57;;;-2.40;99.90;;;-1.59;73.60;98018.78;5203039;28;20573;-58
2022/03/04 04:45:08;;;;;;;22.87;19.50;;;-2.30;99.90;;;-1.57;73.67;98012.31;5201264;28;20208;-58
2022/03/04 04:47:41;;;;;;;25.20;20.67;;;-2.40;99.90;;;-1.63;73.37;98007.56;5202286;28;20231;-58
2022/03/04 04:50:14;;;;;;;23.30;20.27;;;-2.40;99.90;;;-1.68;74.21;98017.81;5202617;28;20677;-58
2022/03/04 04:52:47;;;;;;;24.37;20.03;;;-2.40;99.90;;;-1.72;74.08;98028.22;5203040;28;20208;-57
2022/03/04 04:55:21;;;;;;;24.80;20.17;;;-2.50;99.90;;;-1.74;73.26;98024.69;5202679;28;20198;-58
2022/03/04 04:57:55;;;;;;;24.30;20.10;;;-2.50;99.90;;;-1.78;73.74;98022.56;5203279;28;20221;-56
2022/03/04 05:00:28;;;;;;;27.17;20.23;;;-2.50;99.90;;;-1.72;74.21;98033.22;5203550;28;20205;-58
2022/03/04 05:03:01;;;;;;;25.13;20.77;;;-2.40;99.90;;;-1.73;73.46;98028.97;5203421;28;20206;-57
2022/03/04 05:05:35;;;;;;;24.73;20.70;;;-2.40;99.90;;;-1.72;74.60;98030.72;5203616;28;20202;-58
2022/03/04 05:08:08;;;;;;;24.10;20.03;;;-2.40;99.90;;;-1.76;73.83;98038.66;5200762;28;20728;-57
2022/03/04 05:10:41;;;;;;;25.40;19.40;;;-2.50;99.90;;;-1.78;72.42;98042.59;5196979;28;20233;-57
2022/03/04 05:13:16;;;;;;;24.13;20.43;;;-2.50;99.90;;;-1.89;72.44;98049.88;5204160;28;20288;-56
2022/03/04 05:15:49;;;;;;;26.00;20.53;;;-2.60;99.90;;;-1.89;73.46;98048.97;5203472;28;20202;-58
2022/03/04 05:18:22;;;;;;;25.90;20.80;;;-2.60;99.90;;;-1.86;73.15;98052.72;5204100;28;20308;-57
2022/03/04 05:20:55;;;;;;;24.83;20.40;;;-2.60;99.90;;;-1.84;72.68;98056.25;5202572;28;20201;-58
2022/03/04 05:26:19;;;;;;;26.00;21.10;;;-2.60;99.90;;;-1.93;72.78;98050.25;5200178;28;20201;-58
2022/03/04 05:28:53;;;;;;;25.90;20.70;;;-2.60;99.90;;;-1.94;72.83;98057.63;5199280;28;20222;-57
2022/03/04 05:31:27;;;;;;;28.93;21.70;;;-2.60;99.90;;;-1.98;73.18;98041.34;5206595;28;20713;-58
2022/03/04 05:34:18;;;;;;;25.77;21.00;;;-2.70;99.90;;;-1.98;73.21;98047.97;5201724;28;20214;-57
2022/03/04 05:36:54;;;;;;;24.60;20.10;;;-2.60;99.90;;;-2.00;72.96;98051.94;5202588;28;20197;-57
2022/03/04 05:39:28;;;;;;;28.40;22.63;;;-2.70;99.90;;;-2.05;74.41;98054.84;5201010;28;21905;-59
2022/03/04 05:42:01;;;;;;;29.27;23.37;;;-2.60;99.90;;;-1.98;74.13;98047.97;5204057;28;20190;-58
2022/03/04 05:44:35;;;;;;;29.27;23.07;;;-2.60;99.90;;;-1.91;75.69;98056.31;5203714;28;20205;-57
2022/03/04 05:47:09;;;;;;;31.00;23.07;;;-2.50;99.90;;;-1.88;73.62;98055.78;5202841;28;20202;-58
2022/03/04 05:49:42;;;;;;;29.57;23.60;;;-2.50;99.90;;;-1.71;73.88;98057.56;5203271;28;20206;-58
2022/03/04 05:52:15;;;;;;;31.47;23.77;;;-2.40;99.90;;;-1.72;73.53;98050.78;5199923;28;20202;-57
2022/03/04 05:54:48;;;;;;;27.53;21.73;;;-2.40;99.90;;;-1.74;73.80;98057.25;5202278;28;20583;-57
2022/03/04 05:57:21;;;;;;;29.47;22.87;;;-2.30;99.90;;;-1.74;72.23;98062.25;5204877;28;20205;-58
2022/03/04 05:59:55;;;;;;;28.70;22.23;;;-2.40;99.90;;;-1.55;72.82;98065.97;5202854;28;20198;-55
2022/03/04 06:02:29;;;;;;;29.60;23.30;;;-2.20;99.90;;;-1.75;74.63;98066.34;5204861;28;20211;-56
2022/03/04 06:05:03;;;;;;;30.20;23.40;;;-2.20;99.90;;;-1.68;73.65;98057.91;5203727;28;20341;-57
2022/03/04 06:07:36;;;;;;;29.07;23.07;;;-2.20;99.90;;;-1.63;72.72;98066.78;5202488;28;20592;-57
2022/03/04 06:10:10;;;;;;;28.50;21.77;;;-2.20;99.90;;;-1.61;73.37;98070.34;5203907;28;20222;-58
2022/03/04 06:12:43;;;;;;;26.50;22.33;;;-2.20;99.90;;;-1.64;71.57;98072.53;5203571;28;20200;-57
2022/03/04 06:15:17;;;;;;;28.67;22.63;;;-2.30;99.90;;;-1.65;71.62;98079.16;5204146;28;20214;-57
2022/03/04 06:17:52;;;;;;;29.43;23.17;;;-2.30;99.90;;;-1.70;71.40;98079.38;5203922;28;20221;-57
2022/03/04 06:20:25;;;;;;;32.53;23.27;;;-2.40;99.90;;;-1.73;73.74;98084.06;5196382;28;20262;-57
2022/03/04 06:22:59;;;;;;;26.07;21.57;;;-2.40;99.90;;;-1.65;71.86;98085.78;5203676;28;20587;-56
2022/03/04 06:25:32;;;;;;;28.87;23.03;;;-2.30;99.90;;;-1.54;72.63;98082.81;5198713;28;20200;-57
2022/03/04 06:28:06;;;;;;;28.80;22.67;;;-2.20;99.90;;;-1.40;72.42;98081.78;5203665;28;20556;-57
2022/03/04 06:30:41;;;;;;;27.47;22.10;;;-2.10;99.90;;;-1.24;71.72;98079.25;5203416;28;20202;-57
2022/03/04 06:33:32;;;;;;;26.37;22.20;;;-2.00;99.90;;;-1.03;71.44;98086.53;5201577;28;20559;-58
2022/03/04 06:36:08;;;;;;;25.73;20.50;;;-1.80;99.90;;;-0.79;71.74;98087.31;5204654;28;20237;-58
2022/03/04 06:38:45;;;;;;;26.83;22.37;;;-1.60;99.90;;;-0.60;71.29;98088.50;5202861;28;20233;-58
2022/03/04 06:41:18;;;;;;;26.93;21.40;;;-1.40;99.90;;;-0.44;69.23;98095.06;5205496;28;20202;-57
2022/03/04 06:43:51;;;;;;;26.80;22.37;;;-1.20;99.90;;;-0.28;69.72;98090.91;5202968;28;20200;-57
2022/03/04 06:46:26;;;;;;;28.33;24.03;;;-1.20;99.90;;;-0.10;69.48;98091.88;5202472;28;20202;-57
2022/03/04 06:48:59;;;;;;;32.03;22.80;;;-1.00;99.90;;;0.17;67.90;98088.72;5202896;28;20303;-55
2022/03/04 06:51:32;;;;;;;28.77;22.73;;;-0.90;99.90;;;0.61;66.76;98087.22;5202054;28;20700;-58
2022/03/04 06:54:05;;;;;;;33.50;29.07;;;-0.70;99.90;;;0.80;65.97;98095.84;5203144;28;20592;-58
2022/03/04 06:56:38;;;;;;;29.53;26.30;;;-0.40;99.90;;;1.01;64.81;98089.50;5200847;28;20199;-56
2022/03/04 06:59:11;;;;;;;27.97;23.07;;;-0.10;99.90;;;1.13;63.01;98097.34;5201794;28;20300;-57
2022/03/04 07:01:46;;;;;;;27.07;23.47;;;-0.10;99.90;;;1.23;64.71;98102.53;5202577;28;20205;-59
2022/03/04 07:04:19;;;;;;;28.27;22.60;;;0.20;99.90;;;1.29;64.52;98098.09;5201541;28;20202;-58
2022/03/04 07:06:52;;;;;;;25.93;23.13;;;0.30;99.90;;;1.40;63.11;98105.78;5200924;28;20293;-58
2022/03/04 07:09:25;;;;;;;28.43;22.60;;;0.60;99.90;;;1.54;62.13;98116.41;5201541;28;20234;-59
2022/03/04 07:11:58;;;;;;;25.63;21.33;;;0.80;99.90;;;1.67;62.43;98108.41;5202268;28;20202;-59
2022/03/04 07:14:31;;;;;;;26.80;23.00;;;0.80;99.90;;;1.82;61.42;98124.09;5203452;28;20223;-59
2022/03/04 07:17:05;;;;;;;27.53;22.90;;;0.80;99.50;;;2.14;59.22;98124.59;5202006;28;20647;-58
2022/03/04 07:19:38;;;;;;;29.03;23.33;;;1.10;98.80;;;2.07;59.91;98127.28;5200685;28;20198;-59
2022/03/04 07:22:12;;;;;;;28.50;23.33;;;1.20;98.60;;;2.21;58.98;98119.38;5201421;28;20202;-59
2022/03/04 07:24:45;;;;;;;28.90;22.83;;;1.30;98.10;;;2.27;59.58;98124.09;5201835;28;20194;-59
2022/03/04 07:27:18;;;;;;;28.53;23.43;;;1.30;98.60;;;2.39;58.23;98122.72;5203181;28;20593;-59
2022/03/04 07:29:51;;;;;;;25.57;22.30;;;1.50;98.10;;;2.54;58.08;98123.22;5201846;28;20669;-59
2022/03/04 07:32:25;;;;;;;29.57;23.07;;;1.60;97.50;;;2.48;58.40;98125.19;5202934;28;20199;-59
2022/03/04 07:35:02;;;;;;;27.60;22.70;;;1.70;97.30;;;2.57;57.65;98118.47;5205582;28;20575;-57
2022/03/04 07:37:35;;;;;;;28.10;22.37;;;1.80;97.50;;;2.85;57.81;98115.94;5199401;28;20216;-58
2022/03/04 07:40:11;;;;;;;27.47;22.63;;;2.00;97.60;;;3.09;56.77;98122.31;5202859;28;20220;-59
2022/03/04 07:42:45;;;;;;;28.23;23.63;;;2.20;96.30;;;3.04;57.17;98121.03;5198169;28;20198;-59
2022/03/04 07:45:18;;;;;;;27.90;24.50;;;2.10;97.20;;;3.08;57.50;98115.50;5202807;28;20193;-58
2022/03/04 07:47:52;;;;;;;27.40;23.93;;;2.30;96.80;;;3.12;56.87;98122.59;5206545;28;20224;-59
2022/03/04 07:50:25;;;;;;;29.20;24.57;;;2.20;96.50;;;3.28;56.36;98125.72;5202945;28;20212;-59
2022/03/04 07:52:58;;;;;;;26.10;22.27;;;2.50;96.40;;;3.31;56.60;98135.22;5198146;28;20203;-58
2022/03/04 07:55:31;;;;;;;28.40;23.30;;;2.50;96.50;;;3.50;56.95;98133.59;5201361;28;20615;-59
2022/03/04 07:58:04;;;;;;;29.30;26.20;;;2.70;96.70;;;3.60;56.41;98133.63;5202620;28;20223;-58
2022/03/04 08:00:38;;;;;;;30.00;25.37;;;2.90;96.00;;;3.80;54.96;98134.50;5202690;28;20194;-60
2022/03/04 08:03:17;;;;;;;27.53;24.63;;;3.00;95.60;;;3.78;54.94;98131.84;5201836;28;20198;-59
2022/03/04 08:05:50;;;;;;;26.10;23.30;;;3.00;95.50;;;4.02;54.69;98125.50;5200340;28;20197;-59
2022/03/04 08:08:23;;;;;;;28.50;24.67;;;3.30;95.40;;;4.26;53.75;98128.34;5197491;28;20590;-58
2022/03/04 08:10:56;;;;;;;28.10;25.10;;;3.50;94.50;;;4.31;54.46;98138.88;5200210;28;20194;-59
2022/03/04 08:13:29;;;;;;;28.00;25.03;;;3.60;94.40;;;4.40;53.42;98143.06;5197454;28;20560;-59
2022/03/04 08:16:03;;;;;;;31.47;26.30;;;3.80;93.80;;;4.50;52.49;98148.16;5200972;28;20210;-58
2022/03/04 08:18:37;;;;;;;30.73;25.07;;;3.30;94.30;;;4.43;53.14;98153.44;5197866;28;20224;-59
2022/03/04 08:21:11;;;;;;;29.10;24.93;;;3.50;94.30;;;4.25;53.71;98146.81;5200654;28;20577;-58
2022/03/04 08:23:45;;;;;;;29.23;25.37;;;3.40;94.50;;;4.43;53.90;98145.84;5203350;28;20284;-59
2022/03/04 08:26:18;;;;;;;31.83;25.90;;;3.60;94.20;;;4.52;52.84;98148.28;5203142;28;20186;-59
2022/03/04 08:28:51;;;;;;;27.03;24.20;;;3.80;93.60;;;4.63;52.50;98142.47;5203463;28;20219;-60
2022/03/04 08:31:24;;;;;;;29.60;25.00;;;3.90;93.60;;;4.75;52.28;98137.59;5202345;28;20216;-60
2022/03/04 08:33:58;;;;;;;31.13;26.10;;;4.00;93.30;;;4.88;52.23;98142.88;5203022;28;20221;-59
2022/03/04 08:36:32;;;;;;;30.23;25.43;;;4.10;93.20;;;5.00;52.14;98144.66;5200898;28;20243;-60
2022/03/04 08:39:05;;;;;;;30.33;26.23;;;4.30;93.00;;;5.22;51.23;98148.22;5197431;28;20226;-60
2022/03/04 08:41:41;;;;;;;31.43;25.17;;;4.60;92.70;;;5.29;51.35;98140.34;5196006;28;20667;-59
2022/03/04 08:44:14;;;;;;;28.73;25.17;;;4.70;92.40;;;5.40;51.00;98143.75;5195890;28;20205;-60
2022/03/04 08:46:48;;;;;;;29.60;25.43;;;4.60;92.30;;;5.49;50.34;98146.16;5197551;28;20208;-60
2022/03/04 08:49:22;;;;;;;33.43;26.57;;;4.70;92.40;;;5.53;50.32;98138.06;5202031;28;20224;-59
2022/03/04 08:51:55;;;;;;;31.50;26.43;;;4.70;92.00;;;5.76;50.56;98138.25;5204517;28;20203;-59
2022/03/04 08:54:29;;;;;;;28.73;25.27;;;5.10;91.90;;;5.95;49.99;98137.19;5195367;28;20195;-59
2022/03/04 08:57:02;;;;;;;30.17;26.83;;;5.50;91.50;;;5.85;49.73;98131.34;5202602;28;20220;-60
2022/03/04 08:59:36;;;;;;;30.10;26.30;;;5.40;91.40;;;6.19;49.23;98138.25;5201498;28;20373;-59
2022/03/04 09:02:10;;;;;;;32.80;25.47;;;5.70;91.20;;;6.24;49.31;98131.88;5203858;28;20206;-59
2022/03/04 09:04:44;;;;;;;30.60;26.60;;;5.70;90.60;;;6.52;47.99;98127.25;5201720;28;20203;-60
2022/03/04 09:07:17;;;;;;;30.33;25.17;;;6.00;90.30;;;6.75;47.39;98134.09;5203325;28;20210;-59
2022/03/04 09:09:50;;;;;;;31.20;26.27;;;6.10;89.50;;;6.77;47.31;98141.06;5202402;28;20208;-59
2022/03/04 09:12:23;;;;;;;29.40;26.30;;;6.20;89.80;;;7.00;46.25;98136.84;5201986;28;20209;-59
2022/03/04 09:14:56;;;;;;;29.67;25.17;;;6.40;88.60;;;7.01;47.15;98133.56;5202458;28;20604;-59
2022/03/04 09:17:30;;;;;;;29.30;25.93;;;6.50;88.80;;;7.14;45.67;98132.81;5201888;28;20222;-58
2022/03/04 09:20:05;;;;;;;28.47;25.47;;;6.60;88.30;;;7.32;45.11;98123.97;5203560;28;20206;-59
2022/03/04 09:22:38;;;;;;;28.07;25.07;;;6.90;86.50;;;7.32;45.07;98121.44;5200523;28;20216;-59
2022/03/04 09:25:11;;;;;;;28.57;25.60;;;6.90;86.60;;;7.41;44.59;98122.13;5202843;28;20746;-60
2022/03/04 09:27:46;;;;;;;29.57;25.47;;;7.00;85.30;;;7.39;45.54;98123.69;5201400;28;20220;-60
2022/03/04 09:30:20;;;;;;;29.47;26.27;;;7.00;86.00;;;7.65;43.93;98128.13;5206053;28;20205;-60
2022/03/04 09:32:53;;;;;;;28.90;24.63;;;7.20;83.90;;;7.72;44.34;98128.56;5203120;28;20190;-60
2022/03/04 09:35:27;;;;;;;29.30;26.20;;;7.30;84.40;;;7.73;43.24;98118.50;5202097;28;20225;-59
2022/03/04 09:38:01;;;;;;;28.43;25.53;;;7.20;83.20;;;7.65;43.25;98117.06;5202201;28;20223;-60
2022/03/04 09:40:34;;;;;;;28.10;24.73;;;7.00;84.00;;;7.64;43.07;98125.44;5203323;28;20576;-59
2022/03/04 09:43:08;;;;;;;29.90;24.97;;;7.00;83.00;;;7.78;42.97;98126.44;5202475;28;20194;-60
2022/03/04 09:45:41;;;;;;;26.77;23.43;;;7.10;83.20;;;7.63;42.43;98129.66;5204798;28;20283;-58
2022/03/04 09:48:16;;;;;;;28.03;25.03;;;7.00;81.10;;;7.92;42.42;98128.31;5205511;28;20580;-58
2022/03/04 09:50:51;;;;;;;28.50;25.50;;;7.30;82.10;;;7.98;41.47;98127.88;5201222;28;20209;-59
2022/03/04 09:53:26;;;;;;;27.17;23.40;;;7.40;80.30;;;8.20;39.34;98120.09;5196442;28;20205;-57
2022/03/04 09:56:00;;;;;;;27.23;24.23;;;7.60;78.10;;;8.34;39.31;98117.75;5203023;28;20211;-59
2022/03/04 09:58:33;;;;;;;26.40;22.70;;;7.70;77.90;;;8.45;39.65;98120.19;5204251;28;20229;-59
2022/03/04 10:01:11;;;;;;;27.13;23.93;;;7.90;77.60;;;8.38;38.41;98115.41;5203710;28;20645;-59
2022/03/04 10:03:47;;;;;;;25.63;22.77;;;8.00;75.30;;;8.31;38.24;98109.00;5205060;28;20208;-56
2022/03/04 10:06:23;;;;;;;27.27;23.27;;;7.90;75.40;;;8.39;37.25;98107.91;5202251;28;20285;-59
2022/03/04 10:08:56;;;;;;;28.23;23.67;;;8.10;73.70;;;8.36;38.66;98107.69;5204721;28;20819;-59
2022/03/04 10:11:32;;;;;;;28.83;23.80;;;8.10;75.00;;;8.33;39.95;98107.47;5205302;28;20320;-58
2022/03/04 10:14:07;;;;;;;25.80;22.50;;;7.90;77.20;;;8.61;37.01;98114.47;5205583;28;20284;-59
2022/03/04 10:16:43;;;;;;;27.77;21.87;;;8.20;72.70;;;8.56;36.72;98107.41;5204264;28;20217;-59
2022/03/04 10:19:18;;;;;;;23.97;21.27;;;8.10;72.50;;;8.59;36.02;98101.66;5201901;28;20584;-59
2022/03/04 10:21:54;;;;;;;26.13;21.67;;;8.30;70.40;;;8.57;35.97;98108.28;5202502;28;20198;-59
2022/03/04 10:24:31;;;;;;;24.70;22.17;;;8.20;70.50;;;8.71;35.55;98107.56;5204954;28;20205;-59
2022/03/04 10:27:07;;;;;;;25.70;21.83;;;8.20;70.50;;;8.80;35.60;98107.31;5202996;28;20614;-60
2022/03/04 10:29:46;;;;;;;26.57;20.80;;;8.30;70.70;;;8.77;35.43;98110.53;5202821;28;20233;-60
2022/03/04 10:32:23;;;;;;;25.83;21.97;;;8.20;70.00;;;8.77;35.10;98112.22;5203129;28;20208;-59
2022/03/04 10:34:59;;;;;;;21.67;19.43;;;8.30;68.90;;;8.80;33.88;98098.00;5203049;28;20670;-60
2022/03/04 10:37:48;;;;;;;25.43;21.30;;;8.30;67.60;;;8.62;34.03;98106.06;5204651;28;20229;-60
2022/03/04 10:40:24;;;;;;;22.80;19.73;;;8.20;67.40;;;8.63;34.22;98097.63;5202971;28;20197;-60